sensor_id;sensor_type;location;lat;lon;timestamp;P1;durP1;ratioP1;P2;durP2;ratioP2
18072;SDS011;9161;47.348;9.648;2023-02-04T00:03:34;2.40;;;1.80;;
18072;SDS011;9161;47.348;9.648;2023-02-04T00:08:37;2.93;;;1.90;;
18072;SDS011;9161;47.348;9.648;2023-02-04T00:13:39;2.80;;;1.60;;
18072;SDS011;9161;47.348;9.648;2023-02-04T00:18:43;3.67;;;1.60;;
18072;SDS011;9161;47.348;9.648;2023-02-04T00:23:45;2.97;;;1.23;;
18072;SDS011;9161;47.348;9.648;2023-02-04T00:28:48;2.37;;;1.13;;
18072;SDS011;9161;47.348;9.648;2023-02-04T00:33:52;3.10;;;1.40;;
18072;SDS011;9161;47.348;9.648;2023-02-04T00:38:54;2.43;;;1.47;;
18072;SDS011;9161;47.348;9.648;2023-02-04T00:43:57;2.37;;;1.20;;
18072;SDS011;9161;47.348;9.648;2023-02-04T00:49:01;1.40;;;1.10;;
18072;SDS011;9161;47.348;9.648;2023-02-04T00:54:05;1.97;;;1.10;;
18072;SDS011;9161;47.348;9.648;2023-02-04T00:59:08;2.17;;;1.03;;
18072;SDS011;9161;47.348;9.648;2023-02-04T01:04:11;2.83;;;1.40;;
18072;SDS011;9161;47.348;9.648;2023-02-04T01:09:14;2.83;;;1.50;;
18072;SDS011;9161;47.348;9.648;2023-02-04T01:14:16;2.73;;;1.70;;
18072;SDS011;9161;47.348;9.648;2023-02-04T01:19:20;3.47;;;2.40;;
18072;SDS011;9161;47.348;9.648;2023-02-04T01:24:22;1.80;;;1.37;;
18072;SDS011;9161;47.348;9.648;2023-02-04T01:29:25;4.57;;;2.53;;
18072;SDS011;9161;47.348;9.648;2023-02-04T01:34:28;4.43;;;2.40;;
18072;SDS011;9161;47.348;9.648;2023-02-04T01:39:31;5.73;;;2.90;;
18072;SDS011;9161;47.348;9.648;2023-02-04T01:44:34;4.13;;;2.20;;
18072;SDS011;9161;47.348;9.648;2023-02-04T01:49:38;4.87;;;3.20;;
18072;SDS011;9161;47.348;9.648;2023-02-04T01:54:41;3.43;;;2.23;;
18072;SDS011;9161;47.348;9.648;2023-02-04T01:59:46;1.77;;;1.40;;
18072;SDS011;9161;47.348;9.648;2023-02-04T02:04:53;3.33;;;1.80;;
18072;SDS011;9161;47.348;9.648;2023-02-04T02:09:55;2.60;;;1.47;;
18072;SDS011;9161;47.348;9.648;2023-02-04T02:14:57;4.20;;;1.80;;
18072;SDS011;9161;47.348;9.648;2023-02-04T02:20:02;3.63;;;2.03;;
18072;SDS011;9161;47.348;9.648;2023-02-04T02:25:10;1.90;;;1.30;;
18072;SDS011;9161;47.348;9.648;2023-02-04T02:30:17;2.53;;;1.10;;
18072;SDS011;9161;47.348;9.648;2023-02-04T02:35:21;2.77;;;1.57;;
18072;SDS011;9161;47.348;9.648;2023-02-04T02:40:25;2.00;;;1.47;;
18072;SDS011;9161;47.348;9.648;2023-02-04T02:45:29;1.90;;;1.20;;
18072;SDS011;9161;47.348;9.648;2023-02-04T02:50:33;3.77;;;1.40;;
18072;SDS011;9161;47.348;9.648;2023-02-04T02:55:38;2.93;;;1.73;;
18072;SDS011;9161;47.348;9.648;2023-02-04T03:00:40;2.80;;;1.90;;
18072;SDS011;9161;47.348;9.648;2023-02-04T03:05:44;2.23;;;1.60;;
18072;SDS011;9161;47.348;9.648;2023-02-04T03:10:51;2.50;;;1.70;;
18072;SDS011;9161;47.348;9.648;2023-02-04T03:15:53;1.50;;;1.37;;
18072;SDS011;9161;47.348;9.648;2023-02-04T03:20:56;2.20;;;1.50;;
18072;SDS011;9161;47.348;9.648;2023-02-04T03:26:00;2.63;;;1.53;;
18072;SDS011;9161;47.348;9.648;2023-02-04T03:31:03;1.60;;;1.20;;
18072;SDS011;9161;47.348;9.648;2023-02-04T03:36:06;2.03;;;1.23;;
18072;SDS011;9161;47.348;9.648;2023-02-04T03:41:10;4.30;;;1.83;;
18072;SDS011;9161;47.348;9.648;2023-02-04T03:46:12;3.87;;;1.93;;
18072;SDS011;9161;47.348;9.648;2023-02-04T03:51:15;3.27;;;1.80;;
18072;SDS011;9161;47.348;9.648;2023-02-04T03:56:18;3.10;;;1.83;;
18072;SDS011;9161;47.348;9.648;2023-02-04T04:01:21;3.77;;;2.30;;
18072;SDS011;9161;47.348;9.648;2023-02-04T04:06:23;3.43;;;2.07;;
18072;SDS011;9161;47.348;9.648;2023-02-04T04:11:27;3.93;;;2.50;;
18072;SDS011;9161;47.348;9.648;2023-02-04T04:16:29;3.90;;;2.60;;
18072;SDS011;9161;47.348;9.648;2023-02-04T04:21:31;4.20;;;2.67;;
18072;SDS011;9161;47.348;9.648;2023-02-04T04:26:35;4.10;;;2.67;;
18072;SDS011;9161;47.348;9.648;2023-02-04T04:31:37;5.90;;;3.10;;
18072;SDS011;9161;47.348;9.648;2023-02-04T04:36:40;5.27;;;3.43;;
18072;SDS011;9161;47.348;9.648;2023-02-04T04:41:43;6.53;;;3.57;;
18072;SDS011;9161;47.348;9.648;2023-02-04T04:46:45;5.97;;;3.73;;
18072;SDS011;9161;47.348;9.648;2023-02-04T04:51:47;6.87;;;4.90;;
18072;SDS011;9161;47.348;9.648;2023-02-04T04:56:50;5.27;;;3.23;;
18072;SDS011;9161;47.348;9.648;2023-02-04T05:01:53;3.93;;;2.87;;
18072;SDS011;9161;47.348;9.648;2023-02-04T05:06:54;6.23;;;3.27;;
18072;SDS011;9161;47.348;9.648;2023-02-04T05:11:58;5.93;;;3.60;;
18072;SDS011;9161;47.348;9.648;2023-02-04T05:17:00;5.93;;;3.37;;
18072;SDS011;9161;47.348;9.648;2023-02-04T05:22:02;6.47;;;3.13;;
18072;SDS011;9161;47.348;9.648;2023-02-04T05:27:06;7.00;;;3.43;;
18072;SDS011;9161;47.348;9.648;2023-02-04T05:32:08;6.07;;;3.50;;
18072;SDS011;9161;47.348;9.648;2023-02-04T05:37:10;7.43;;;3.90;;
18072;SDS011;9161;47.348;9.648;2023-02-04T05:42:15;6.00;;;3.93;;
18072;SDS011;9161;47.348;9.648;2023-02-04T05:47:18;6.97;;;4.27;;
18072;SDS011;9161;47.348;9.648;2023-02-04T05:52:20;6.87;;;3.83;;
18072;SDS011;9161;47.348;9.648;2023-02-04T05:57:24;8.13;;;4.80;;
18072;SDS011;9161;47.348;9.648;2023-02-04T06:02:26;7.97;;;4.60;;
18072;SDS011;9161;47.348;9.648;2023-02-04T06:07:29;8.40;;;5.10;;
18072;SDS011;9161;47.348;9.648;2023-02-04T06:12:32;10.13;;;5.47;;
18072;SDS011;9161;47.348;9.648;2023-02-04T06:17:34;8.73;;;4.83;;
18072;SDS011;9161;47.348;9.648;2023-02-04T06:22:38;10.53;;;5.50;;
18072;SDS011;9161;47.348;9.648;2023-02-04T06:27:42;9.27;;;5.27;;
18072;SDS011;9161;47.348;9.648;2023-02-04T06:32:44;9.83;;;5.77;;
18072;SDS011;9161;47.348;9.648;2023-02-04T06:37:46;8.73;;;4.80;;
18072;SDS011;9161;47.348;9.648;2023-02-04T06:42:50;11.30;;;6.40;;
18072;SDS011;9161;47.348;9.648;2023-02-04T06:47:53;12.37;;;6.20;;
18072;SDS011;9161;47.348;9.648;2023-02-04T06:52:56;13.20;;;7.43;;
18072;SDS011;9161;47.348;9.648;2023-02-04T06:57:59;11.73;;;6.30;;
18072;SDS011;9161;47.348;9.648;2023-02-04T07:03:01;11.33;;;6.10;;
18072;SDS011;9161;47.348;9.648;2023-02-04T07:08:06;10.57;;;6.03;;
18072;SDS011;9161;47.348;9.648;2023-02-04T07:13:10;9.70;;;6.10;;
18072;SDS011;9161;47.348;9.648;2023-02-04T07:18:12;12.53;;;6.40;;
18072;SDS011;9161;47.348;9.648;2023-02-04T07:23:14;12.93;;;6.43;;
18072;SDS011;9161;47.348;9.648;2023-02-04T07:28:18;11.50;;;6.70;;
18072;SDS011;9161;47.348;9.648;2023-02-04T07:33:21;15.63;;;8.13;;
18072;SDS011;9161;47.348;9.648;2023-02-04T07:38:24;13.70;;;7.80;;
18072;SDS011;9161;47.348;9.648;2023-02-04T07:43:28;12.97;;;7.40;;
18072;SDS011;9161;47.348;9.648;2023-02-04T07:48:31;14.30;;;8.33;;
18072;SDS011;9161;47.348;9.648;2023-02-04T07:53:33;17.23;;;9.87;;
18072;SDS011;9161;47.348;9.648;2023-02-04T07:58:37;16.67;;;9.67;;
18072;SDS011;9161;47.348;9.648;2023-02-04T08:03:39;21.63;;;11.03;;
18072;SDS011;9161;47.348;9.648;2023-02-04T08:08:42;17.87;;;10.30;;
18072;SDS011;9161;47.348;9.648;2023-02-04T08:13:45;20.23;;;10.40;;
18072;SDS011;9161;47.348;9.648;2023-02-04T08:18:47;19.27;;;10.37;;
18072;SDS011;9161;47.348;9.648;2023-02-04T08:23:50;16.77;;;9.67;;
18072;SDS011;9161;47.348;9.648;2023-02-04T08:28:54;16.67;;;10.07;;
18072;SDS011;9161;47.348;9.648;2023-02-04T08:33:56;15.33;;;9.47;;
18072;SDS011;9161;47.348;9.648;2023-02-04T08:38:58;16.17;;;9.23;;
18072;SDS011;9161;47.348;9.648;2023-02-04T08:44:03;16.33;;;9.13;;
18072;SDS011;9161;47.348;9.648;2023-02-04T08:49:06;17.53;;;10.00;;
18072;SDS011;9161;47.348;9.648;2023-02-04T08:54:10;19.20;;;10.63;;
18072;SDS011;9161;47.348;9.648;2023-02-04T08:59:14;22.17;;;10.70;;
18072;SDS011;9161;47.348;9.648;2023-02-04T09:04:16;20.97;;;11.00;;
18072;SDS011;9161;47.348;9.648;2023-02-04T09:09:19;20.80;;;10.57;;
18072;SDS011;9161;47.348;9.648;2023-02-04T09:14:25;19.40;;;10.57;;
18072;SDS011;9161;47.348;9.648;2023-02-04T09:19:27;16.77;;;9.13;;
18072;SDS011;9161;47.348;9.648;2023-02-04T09:24:30;12.40;;;5.77;;
18072;SDS011;9161;47.348;9.648;2023-02-04T09:29:34;5.27;;;2.70;;
18072;SDS011;9161;47.348;9.648;2023-02-04T09:34:36;5.60;;;2.27;;
18072;SDS011;9161;47.348;9.648;2023-02-04T09:39:39;3.70;;;1.50;;
18072;SDS011;9161;47.348;9.648;2023-02-04T09:44:42;2.40;;;1.40;;
18072;SDS011;9161;47.348;9.648;2023-02-04T09:49:45;3.70;;;0.87;;
18072;SDS011;9161;47.348;9.648;2023-02-04T09:54:47;1.77;;;1.13;;
18072;SDS011;9161;47.348;9.648;2023-02-04T09:59:51;3.73;;;0.70;;
18072;SDS011;9161;47.348;9.648;2023-02-04T10:04:55;2.57;;;1.10;;
18072;SDS011;9161;47.348;9.648;2023-02-04T10:09:58;2.13;;;1.17;;
18072;SDS011;9161;47.348;9.648;2023-02-04T10:15:02;5.57;;;1.20;;
18072;SDS011;9161;47.348;9.648;2023-02-04T10:20:11;4.23;;;1.50;;
18072;SDS011;9161;47.348;9.648;2023-02-04T10:25:14;2.17;;;1.13;;
18072;SDS011;9161;47.348;9.648;2023-02-04T10:30:20;2.17;;;1.50;;
18072;SDS011;9161;47.348;9.648;2023-02-04T10:35:24;6.23;;;1.60;;
18072;SDS011;9161;47.348;9.648;2023-02-04T10:40:28;2.17;;;1.20;;
18072;SDS011;9161;47.348;9.648;2023-02-04T10:45:33;5.73;;;1.37;;
18072;SDS011;9161;47.348;9.648;2023-02-04T10:50:35;6.03;;;1.27;;
18072;SDS011;9161;47.348;9.648;2023-02-04T10:55:38;3.07;;;1.10;;
18072;SDS011;9161;47.348;9.648;2023-02-04T11:00:41;3.83;;;1.10;;
18072;SDS011;9161;47.348;9.648;2023-02-04T11:05:43;2.40;;;1.13;;
18072;SDS011;9161;47.348;9.648;2023-02-04T11:10:48;2.53;;;1.13;;
18072;SDS011;9161;47.348;9.648;2023-02-04T11:16:05;3.20;;;1.20;;
18072;SDS011;9161;47.348;9.648;2023-02-04T11:21:13;6.53;;;2.30;;
18072;SDS011;9161;47.348;9.648;2023-02-04T11:26:30;4.00;;;1.40;;
18072;SDS011;9161;47.348;9.648;2023-02-04T11:31:43;3.83;;;1.53;;
18072;SDS011;9161;47.348;9.648;2023-02-04T11:37:02;4.83;;;1.30;;
18072;SDS011;9161;47.348;9.648;2023-02-04T11:42:17;5.57;;;1.90;;
18072;SDS011;9161;47.348;9.648;2023-02-04T11:47:23;3.40;;;1.80;;
18072;SDS011;9161;47.348;9.648;2023-02-04T11:52:27;5.13;;;2.77;;
18072;SDS011;9161;47.348;9.648;2023-02-04T11:57:36;5.73;;;2.53;;
18072;SDS011;9161;47.348;9.648;2023-02-04T12:02:43;2.63;;;1.70;;
18072;SDS011;9161;47.348;9.648;2023-02-04T12:07:46;9.80;;;3.17;;
18072;SDS011;9161;47.348;9.648;2023-02-04T12:12:49;7.03;;;2.73;;
18072;SDS011;9161;47.348;9.648;2023-02-04T12:18:05;2.43;;;1.13;;
18072;SDS011;9161;47.348;9.648;2023-02-04T12:23:08;3.07;;;1.03;;
18072;SDS011;9161;47.348;9.648;2023-02-04T12:28:11;2.00;;;0.83;;
18072;SDS011;9161;47.348;9.648;2023-02-04T12:33:15;3.47;;;0.80;;
18072;SDS011;9161;47.348;9.648;2023-02-04T12:38:17;2.07;;;0.80;;
18072;SDS011;9161;47.348;9.648;2023-02-04T12:43:19;3.13;;;1.10;;
18072;SDS011;9161;47.348;9.648;2023-02-04T12:48:23;1.73;;;1.03;;
18072;SDS011;9161;47.348;9.648;2023-02-04T12:53:26;3.93;;;1.30;;
18072;SDS011;9161;47.348;9.648;2023-02-04T12:58:28;2.90;;;1.30;;
18072;SDS011;9161;47.348;9.648;2023-02-04T13:03:32;3.03;;;1.13;;
18072;SDS011;9161;47.348;9.648;2023-02-04T13:08:34;3.47;;;0.90;;
18072;SDS011;9161;47.348;9.648;2023-02-04T13:13:36;3.20;;;1.10;;
18072;SDS011;9161;47.348;9.648;2023-02-04T13:18:39;3.63;;;1.37;;
18072;SDS011;9161;47.348;9.648;2023-02-04T13:23:42;4.20;;;1.70;;
18072;SDS011;9161;47.348;9.648;2023-02-04T13:28:44;4.83;;;1.27;;
18072;SDS011;9161;47.348;9.648;2023-02-04T13:33:48;1.83;;;1.13;;
18072;SDS011;9161;47.348;9.648;2023-02-04T13:38:50;2.70;;;1.20;;
18072;SDS011;9161;47.348;9.648;2023-02-04T13:43:53;4.57;;;1.80;;
18072;SDS011;9161;47.348;9.648;2023-02-04T13:48:58;4.93;;;1.70;;
18072;SDS011;9161;47.348;9.648;2023-02-04T13:54:00;4.10;;;1.50;;
18072;SDS011;9161;47.348;9.648;2023-02-04T13:59:03;6.87;;;1.70;;
18072;SDS011;9161;47.348;9.648;2023-02-04T14:04:06;7.67;;;2.00;;
18072;SDS011;9161;47.348;9.648;2023-02-04T14:09:09;4.33;;;2.10;;
18072;SDS011;9161;47.348;9.648;2023-02-04T14:14:11;5.77;;;2.07;;
18072;SDS011;9161;47.348;9.648;2023-02-04T14:19:15;4.70;;;2.07;;
18072;SDS011;9161;47.348;9.648;2023-02-04T14:24:18;4.20;;;2.33;;
18072;SDS011;9161;47.348;9.648;2023-02-04T14:29:21;8.77;;;2.97;;
18072;SDS011;9161;47.348;9.648;2023-02-04T14:34:24;4.27;;;1.90;;
18072;SDS011;9161;47.348;9.648;2023-02-04T14:39:27;8.57;;;2.03;;
18072;SDS011;9161;47.348;9.648;2023-02-04T14:44:30;6.40;;;2.60;;
18072;SDS011;9161;47.348;9.648;2023-02-04T14:49:34;7.40;;;3.30;;
18072;SDS011;9161;47.348;9.648;2023-02-04T14:54:37;5.77;;;2.70;;
18072;SDS011;9161;47.348;9.648;2023-02-04T14:59:40;5.70;;;2.50;;
18072;SDS011;9161;47.348;9.648;2023-02-04T15:04:43;5.70;;;2.17;;
18072;SDS011;9161;47.348;9.648;2023-02-04T15:09:46;5.00;;;2.80;;
18072;SDS011;9161;47.348;9.648;2023-02-04T15:14:48;6.23;;;2.70;;
18072;SDS011;9161;47.348;9.648;2023-02-04T15:19:51;4.03;;;1.90;;
18072;SDS011;9161;47.348;9.648;2023-02-04T15:24:54;7.43;;;2.40;;
18072;SDS011;9161;47.348;9.648;2023-02-04T15:29:56;5.07;;;2.20;;
18072;SDS011;9161;47.348;9.648;2023-02-04T15:35:00;4.00;;;2.23;;
18072;SDS011;9161;47.348;9.648;2023-02-04T15:40:03;5.80;;;2.43;;
18072;SDS011;9161;47.348;9.648;2023-02-04T15:45:08;7.60;;;3.10;;
18072;SDS011;9161;47.348;9.648;2023-02-04T15:50:11;7.60;;;2.60;;
18072;SDS011;9161;47.348;9.648;2023-02-04T15:55:14;5.40;;;2.60;;
18072;SDS011;9161;47.348;9.648;2023-02-04T16:00:17;10.53;;;5.20;;
18072;SDS011;9161;47.348;9.648;2023-02-04T16:05:22;10.13;;;4.03;;
18072;SDS011;9161;47.348;9.648;2023-02-04T16:10:24;7.60;;;3.60;;
18072;SDS011;9161;47.348;9.648;2023-02-04T16:15:27;9.40;;;4.27;;
18072;SDS011;9161;47.348;9.648;2023-02-04T16:20:32;9.10;;;3.60;;
18072;SDS011;9161;47.348;9.648;2023-02-04T16:25:35;7.67;;;4.30;;
18072;SDS011;9161;47.348;9.648;2023-02-04T16:30:38;8.83;;;4.70;;
18072;SDS011;9161;47.348;9.648;2023-02-04T16:41:04;8.53;;;4.17;;
18072;SDS011;9161;47.348;9.648;2023-02-04T16:46:08;11.30;;;4.30;;
18072;SDS011;9161;47.348;9.648;2023-02-04T16:51:12;16.03;;;5.50;;
18072;SDS011;9161;47.348;9.648;2023-02-04T16:56:15;15.47;;;6.00;;
18072;SDS011;9161;47.348;9.648;2023-02-04T17:01:17;16.03;;;5.87;;
18072;SDS011;9161;47.348;9.648;2023-02-04T17:06:21;10.00;;;5.37;;
18072;SDS011;9161;47.348;9.648;2023-02-04T17:11:24;10.83;;;4.87;;
18072;SDS011;9161;47.348;9.648;2023-02-04T17:16:31;12.87;;;5.20;;
18072;SDS011;9161;47.348;9.648;2023-02-04T17:21:35;13.67;;;5.30;;
18072;SDS011;9161;47.348;9.648;2023-02-04T17:26:39;14.30;;;5.60;;
18072;SDS011;9161;47.348;9.648;2023-02-04T17:31:42;12.03;;;5.60;;
18072;SDS011;9161;47.348;9.648;2023-02-04T17:36:46;11.87;;;5.80;;
18072;SDS011;9161;47.348;9.648;2023-02-04T17:41:50;14.53;;;5.97;;
18072;SDS011;9161;47.348;9.648;2023-02-04T17:46:53;10.50;;;5.23;;
18072;SDS011;9161;47.348;9.648;2023-02-04T17:52:00;8.93;;;4.90;;
18072;SDS011;9161;47.348;9.648;2023-02-04T17:57:10;14.23;;;5.60;;
18072;SDS011;9161;47.348;9.648;2023-02-04T18:02:22;14.77;;;5.40;;
18072;SDS011;9161;47.348;9.648;2023-02-04T18:07:30;12.00;;;5.27;;
18072;SDS011;9161;47.348;9.648;2023-02-04T18:12:33;11.07;;;5.77;;
18072;SDS011;9161;47.348;9.648;2023-02-04T18:17:36;9.73;;;6.00;;
18072;SDS011;9161;47.348;9.648;2023-02-04T18:22:40;10.70;;;5.70;;
18072;SDS011;9161;47.348;9.648;2023-02-04T18:27:43;15.53;;;7.20;;
18072;SDS011;9161;47.348;9.648;2023-02-04T18:32:45;13.07;;;7.27;;
18072;SDS011;9161;47.348;9.648;2023-02-04T18:37:51;12.27;;;6.37;;
18072;SDS011;9161;47.348;9.648;2023-02-04T18:43:00;14.20;;;6.83;;
18072;SDS011;9161;47.348;9.648;2023-02-04T18:53:59;21.00;;;10.00;;
18072;SDS011;9161;47.348;9.648;2023-02-04T18:59:25;21.50;;;10.90;;
18072;SDS011;9161;47.348;9.648;2023-02-04T19:04:38;14.03;;;8.73;;
18072;SDS011;9161;47.348;9.648;2023-02-04T19:09:43;16.53;;;9.23;;
18072;SDS011;9161;47.348;9.648;2023-02-04T19:14:52;18.33;;;9.67;;
18072;SDS011;9161;47.348;9.648;2023-02-04T19:19:56;17.80;;;9.30;;
18072;SDS011;9161;47.348;9.648;2023-02-04T19:30:38;19.17;;;9.33;;
18072;SDS011;9161;47.348;9.648;2023-02-04T19:35:45;14.97;;;8.37;;
18072;SDS011;9161;47.348;9.648;2023-02-04T19:40:51;16.37;;;7.87;;
18072;SDS011;9161;47.348;9.648;2023-02-04T19:45:53;14.90;;;7.37;;
18072;SDS011;9161;47.348;9.648;2023-02-04T19:50:56;12.60;;;6.57;;
18072;SDS011;9161;47.348;9.648;2023-02-04T19:56:03;13.90;;;6.40;;
18072;SDS011;9161;47.348;9.648;2023-02-04T20:01:29;16.70;;;7.00;;
18072;SDS011;9161;47.348;9.648;2023-02-04T20:06:33;13.57;;;6.20;;
18072;SDS011;9161;47.348;9.648;2023-02-04T20:11:40;10.47;;;6.10;;
18072;SDS011;9161;47.348;9.648;2023-02-04T20:17:15;13.30;;;6.07;;
18072;SDS011;9161;47.348;9.648;2023-02-04T20:22:40;10.97;;;5.90;;
18072;SDS011;9161;47.348;9.648;2023-02-04T20:27:47;16.73;;;7.47;;
18072;SDS011;9161;47.348;9.648;2023-02-04T20:32:55;14.17;;;8.13;;
18072;SDS011;9161;47.348;9.648;2023-02-04T20:37:59;22.83;;;9.47;;
18072;SDS011;9161;47.348;9.648;2023-02-04T20:43:14;20.37;;;9.40;;
18072;SDS011;9161;47.348;9.648;2023-02-04T20:48:30;15.33;;;7.77;;
18072;SDS011;9161;47.348;9.648;2023-02-04T20:53:36;23.27;;;9.07;;
18072;SDS011;9161;47.348;9.648;2023-02-04T20:58:41;34.83;;;14.23;;
18072;SDS011;9161;47.348;9.648;2023-02-04T21:03:45;30.90;;;13.53;;
18072;SDS011;9161;47.348;9.648;2023-02-04T21:08:51;27.37;;;12.47;;
18072;SDS011;9161;47.348;9.648;2023-02-04T21:13:57;27.63;;;13.20;;
18072;SDS011;9161;47.348;9.648;2023-02-04T21:19:00;29.20;;;14.33;;
18072;SDS011;9161;47.348;9.648;2023-02-04T21:24:03;31.53;;;14.70;;
18072;SDS011;9161;47.348;9.648;2023-02-04T21:29:10;21.27;;;10.63;;
18072;SDS011;9161;47.348;9.648;2023-02-04T21:34:13;19.37;;;9.40;;
18072;SDS011;9161;47.348;9.648;2023-02-04T21:39:17;18.37;;;8.53;;
18072;SDS011;9161;47.348;9.648;2023-02-04T21:44:21;16.20;;;8.30;;
18072;SDS011;9161;47.348;9.648;2023-02-04T21:49:24;16.33;;;8.60;;
18072;SDS011;9161;47.348;9.648;2023-02-04T21:54:26;15.87;;;9.43;;
18072;SDS011;9161;47.348;9.648;2023-02-04T21:59:30;22.37;;;10.13;;
18072;SDS011;9161;47.348;9.648;2023-02-04T22:04:33;21.33;;;11.30;;
18072;SDS011;9161;47.348;9.648;2023-02-04T22:09:35;21.20;;;10.60;;
18072;SDS011;9161;47.348;9.648;2023-02-04T22:14:39;18.50;;;10.27;;
18072;SDS011;9161;47.348;9.648;2023-02-04T22:19:58;33.47;;;14.27;;
18072;SDS011;9161;47.348;9.648;2023-02-04T22:25:01;33.07;;;13.73;;
18072;SDS011;9161;47.348;9.648;2023-02-04T22:30:05;25.40;;;12.17;;
18072;SDS011;9161;47.348;9.648;2023-02-04T22:35:08;28.93;;;13.60;;
18072;SDS011;9161;47.348;9.648;2023-02-04T22:40:15;36.93;;;17.13;;
18072;SDS011;9161;47.348;9.648;2023-02-04T22:45:19;23.70;;;12.93;;
18072;SDS011;9161;47.348;9.648;2023-02-04T22:50:22;32.80;;;14.63;;
18072;SDS011;9161;47.348;9.648;2023-02-04T22:55:24;31.40;;;15.80;;
18072;SDS011;9161;47.348;9.648;2023-02-04T23:05:27;29.17;;;13.83;;
18072;SDS011;9161;47.348;9.648;2023-02-04T23:10:31;28.90;;;14.20;;
18072;SDS011;9161;47.348;9.648;2023-02-04T23:15:34;28.23;;;14.50;;
18072;SDS011;9161;47.348;9.648;2023-02-04T23:20:38;28.43;;;14.37;;
18072;SDS011;9161;47.348;9.648;2023-02-04T23:25:41;30.10;;;15.13;;
18072;SDS011;9161;47.348;9.648;2023-02-04T23:30:43;29.70;;;14.43;;
18072;SDS011;9161;47.348;9.648;2023-02-04T23:35:47;30.97;;;14.97;;
18072;SDS011;9161;47.348;9.648;2023-02-04T23:40:50;32.47;;;14.70;;
18072;SDS011;9161;47.348;9.648;2023-02-04T23:45:52;25.13;;;13.80;;
18072;SDS011;9161;47.348;9.648;2023-02-04T23:50:59;24.90;;;13.43;;
18072;SDS011;9161;47.348;9.648;2023-02-04T23:56:24;22.53;;;11.80;;
